createdAt,value
2017-05-29T00:01:38.419Z,27.47
2017-05-29T00:04:06.953Z,31.82
2017-05-29T00:06:35.291Z,28.35
2017-05-29T00:17:27.371Z,25.45
2017-05-29T00:19:55.712Z,22.93
2017-05-29T00:22:24.468Z,21.07
2017-05-29T00:24:52.906Z,23.78
2017-05-29T00:27:21.276Z,22.58
2017-05-29T00:29:49.621Z,23.30
2017-05-29T00:32:18.179Z,23.12
2017-05-29T00:34:45.849Z,24.67
2017-05-29T00:37:14.203Z,27.15
2017-05-29T00:39:42.723Z,22.60
2017-05-29T00:42:11.075Z,22.07
2017-05-29T00:44:39.447Z,23.38
2017-05-29T00:47:08.113Z,22.85
2017-05-29T00:49:36.448Z,23.02
2017-05-29T00:52:04.789Z,20.28
2017-05-29T00:54:33.332Z,19.83
2017-05-29T00:57:01.676Z,18.57
2017-05-29T00:59:30.034Z,19.13
2017-05-29T01:01:58.537Z,19.97
2017-05-29T01:04:26.880Z,19.52
2017-05-29T01:06:55.219Z,18.27
2017-05-29T01:09:23.689Z,18.15
2017-05-29T01:11:52.027Z,17.97
2017-05-29T01:14:20.376Z,20.73
2017-05-29T01:16:48.738Z,21.05
2017-05-29T01:19:16.312Z,22.62
2017-05-29T01:21:44.667Z,21.15
2017-05-29T01:24:13.992Z,20.23
2017-05-29T01:26:42.327Z,19.88
2017-05-29T01:29:10.716Z,22.12
2017-05-29T01:31:39.235Z,19.78
2017-05-29T01:34:07.611Z,21.80
2017-05-29T01:36:35.960Z,19.75
2017-05-29T01:39:04.492Z,19.35
2017-05-29T01:41:32.842Z,20.73
2017-05-29T01:44:01.193Z,20.50
2017-05-29T01:46:29.688Z,20.30
2017-05-29T01:48:58.027Z,18.75
2017-05-29T01:51:26.851Z,16.87
2017-05-29T01:53:55.310Z,18.95
2017-05-29T01:56:23.653Z,17.93
2017-05-29T01:58:51.984Z,18.37
2017-05-29T02:01:20.499Z,19.10
2017-05-29T02:03:48.076Z,19.60
2017-05-29T02:06:16.411Z,20.93
2017-05-29T02:08:44.916Z,20.13
2017-05-29T02:11:13.263Z,19.22
2017-05-29T02:13:41.599Z,22.18
2017-05-29T02:16:10.103Z,19.77
2017-05-29T02:18:38.455Z,23.90
2017-05-29T02:21:06.792Z,25.08
2017-05-29T02:23:35.880Z,19.67
2017-05-29T02:26:04.213Z,21.17
2017-05-29T02:28:32.548Z,22.25
2017-05-29T02:31:00.923Z,21.35
2017-05-29T02:33:28.513Z,22.70
2017-05-29T02:35:58.087Z,21.72
2017-05-29T02:38:26.630Z,23.55
2017-05-29T02:40:54.978Z,22.62
2017-05-29T02:43:23.321Z,19.80
2017-05-29T02:45:51.784Z,18.03
2017-05-29T02:48:20.128Z,20.00
2017-05-29T02:50:48.457Z,20.85
2017-05-29T02:53:16.160Z,19.83
2017-05-29T02:55:44.495Z,21.93
2017-05-29T02:58:12.830Z,21.08
2017-05-29T03:00:41.355Z,22.18
2017-05-29T03:03:08.931Z,20.98
2017-05-29T03:05:37.272Z,18.85
2017-05-29T03:08:05.668Z,21.15
2017-05-29T03:10:33.996Z,23.48
2017-05-29T03:13:02.340Z,25.60
2017-05-29T03:15:30.713Z,26.42
2017-05-29T03:17:59.056Z,26.73
2017-05-29T03:20:26.623Z,25.58
2017-05-29T03:22:54.975Z,23.92
2017-05-29T03:25:23.319Z,30.68
2017-05-29T03:27:51.668Z,25.57
2017-05-29T03:30:20.135Z,23.47
2017-05-29T03:32:48.512Z,26.80
2017-05-29T03:35:16.853Z,24.53
2017-05-29T03:37:45.360Z,21.02
2017-05-29T03:40:13.800Z,23.53
2017-05-29T03:42:42.134Z,22.77
2017-05-29T03:45:10.504Z,22.70
2017-05-29T03:47:41.145Z,21.22
2017-05-29T03:50:09.476Z,21.55
2017-05-29T03:52:37.855Z,22.02
2017-05-29T03:55:06.205Z,22.97
2017-05-29T03:57:34.572Z,21.33
2017-05-29T04:00:02.987Z,19.75
2017-05-29T04:02:31.320Z,23.92
2017-05-29T04:04:58.897Z,21.98
2017-05-29T04:07:27.276Z,20.08
2017-05-29T04:09:55.633Z,23.18
2017-05-29T04:12:23.978Z,22.22
2017-05-29T04:14:52.445Z,25.33
2017-05-29T04:17:20.777Z,25.22
2017-05-29T04:19:49.140Z,23.97
2017-05-29T04:22:17.534Z,28.32
2017-05-29T04:24:45.889Z,23.92
2017-05-29T04:27:14.262Z,25.52
2017-05-29T04:29:42.889Z,23.83
2017-05-29T04:32:11.240Z,27.87
2017-05-29T04:34:39.579Z,21.40
2017-05-29T04:37:07.968Z,22.70
2017-05-29T04:39:37.472Z,24.48
2017-05-29T04:42:05.808Z,24.82
2017-05-29T04:44:34.857Z,22.97
2017-05-29T04:47:03.200Z,24.83
2017-05-29T04:49:31.884Z,22.53
2017-05-29T04:52:00.269Z,22.55
2017-05-29T04:54:29.483Z,22.07
2017-05-29T04:56:57.813Z,22.75
2017-05-29T04:59:26.287Z,22.38
2017-05-29T05:01:54.656Z,18.97
2017-05-29T05:04:23.100Z,21.62
2017-05-29T05:06:51.630Z,19.13
2017-05-29T05:09:19.963Z,19.13
2017-05-29T05:11:48.323Z,19.50
2017-05-29T05:14:16.122Z,27.10
2017-05-29T05:16:44.469Z,19.98
2017-05-29T05:19:12.796Z,22.25
2017-05-29T05:21:41.270Z,20.62
2017-05-29T05:24:09.600Z,19.25
2017-05-29T05:26:37.936Z,17.93
2017-05-29T05:29:06.318Z,18.45
2017-05-29T05:31:34.651Z,18.52
2017-05-29T05:34:02.995Z,19.23
2017-05-29T05:36:31.368Z,17.97
2017-05-29T05:38:59.715Z,19.45
2017-05-29T05:41:28.061Z,18.87
2017-05-29T05:43:56.513Z,18.92
2017-05-29T05:46:24.304Z,19.45
2017-05-29T05:48:52.878Z,20.45
2017-05-29T05:51:21.340Z,25.10
2017-05-29T05:53:49.676Z,20.90
2017-05-29T05:56:18.003Z,17.80
2017-05-29T05:58:46.635Z,17.32
2017-05-29T06:01:14.968Z,16.85
2017-05-29T06:03:43.878Z,15.93
2017-05-29T06:06:12.591Z,17.05
2017-05-29T06:08:40.925Z,17.82
2017-05-29T06:11:09.256Z,21.80
2017-05-29T06:13:38.680Z,18.20
2017-05-29T06:16:07.010Z,20.10
2017-05-29T06:18:35.344Z,18.73
2017-05-29T06:21:03.887Z,18.35
2017-05-29T06:23:32.642Z,19.05
2017-05-29T06:26:00.975Z,16.45
2017-05-29T06:28:29.361Z,17.82
2017-05-29T06:30:57.695Z,16.15
2017-05-29T06:33:26.056Z,18.73
2017-05-29T06:35:55.319Z,16.83
2017-05-29T06:38:23.654Z,14.98
2017-05-29T06:40:52.671Z,12.72
2017-05-29T06:43:21.229Z,15.80
2017-05-29T06:45:49.568Z,13.63
2017-05-29T06:48:17.920Z,14.73
2017-05-29T06:50:46.428Z,16.27
2017-05-29T06:53:14.787Z,17.43
2017-05-29T06:55:43.119Z,18.03
2017-05-29T06:58:11.714Z,21.13
2017-05-29T07:00:40.050Z,17.50
2017-05-29T07:03:08.397Z,16.37
2017-05-29T07:05:37.161Z,14.67
2017-05-29T07:08:05.505Z,15.85
2017-05-29T07:10:33.848Z,14.78
2017-05-29T07:13:02.496Z,15.60
2017-05-29T07:15:30.849Z,16.07
2017-05-29T07:17:59.208Z,13.95
2017-05-29T07:20:27.829Z,13.17
2017-05-29T07:22:56.187Z,14.05
2017-05-29T07:25:24.515Z,13.15
2017-05-29T07:27:53.017Z,12.90
2017-05-29T07:30:21.347Z,12.45
2017-05-29T07:32:49.673Z,13.55
2017-05-29T07:35:18.281Z,13.03
2017-05-29T07:37:46.616Z,13.08
2017-05-29T07:40:14.959Z,14.03
2017-05-29T07:42:43.618Z,11.82
2017-05-29T07:45:11.959Z,15.97
2017-05-29T07:47:40.293Z,11.97
2017-05-29T07:50:08.790Z,12.15
2017-05-29T07:52:37.126Z,12.10
2017-05-29T07:55:05.447Z,13.48
2017-05-29T07:57:34.051Z,10.72
2017-05-29T08:00:01.624Z,12.72
2017-05-29T08:02:29.961Z,14.08
2017-05-29T08:04:57.724Z,13.28
2017-05-29T08:07:26.057Z,12.58
2017-05-29T08:09:54.380Z,11.17
2017-05-29T08:12:22.141Z,15.77
2017-05-29T08:14:50.624Z,12.62
2017-05-29T08:17:18.976Z,13.03
2017-05-29T08:19:47.360Z,13.73
2017-05-29T08:22:16.651Z,16.00
2017-05-29T08:24:44.999Z,13.50
2017-05-29T08:27:13.639Z,15.13
2017-05-29T08:29:42.004Z,14.03
2017-05-29T08:32:10.341Z,14.45
2017-05-29T08:34:38.976Z,14.98
2017-05-29T08:37:07.310Z,13.85
2017-05-29T08:39:35.661Z,14.30
2017-05-29T08:42:04.221Z,13.62
2017-05-29T08:44:32.576Z,15.52
2017-05-29T08:47:00.929Z,13.25
2017-05-29T08:49:29.560Z,15.55
2017-05-29T08:51:57.913Z,17.32
2017-05-29T08:54:26.267Z,14.83
2017-05-29T08:56:54.653Z,15.65
2017-05-29T08:59:23.000Z,14.07
2017-05-29T09:01:51.352Z,15.52
2017-05-29T09:04:19.874Z,16.83
2017-05-29T09:06:48.223Z,14.25
2017-05-29T09:09:16.584Z,15.20
2017-05-29T09:11:45.065Z,17.03
2017-05-29T09:14:13.423Z,15.97
2017-05-29T09:16:41.771Z,15.10
2017-05-29T09:19:10.324Z,15.18
2017-05-29T09:21:39.092Z,15.67
2017-05-29T09:24:07.438Z,13.65
2017-05-29T09:26:35.109Z,15.10
2017-05-29T09:29:03.450Z,16.53
2017-05-29T09:31:31.805Z,15.85
2017-05-29T09:34:00.331Z,18.18
2017-05-29T09:36:28.704Z,16.53
2017-05-29T09:38:57.046Z,18.03
2017-05-29T09:41:25.842Z,16.35
2017-05-29T09:43:54.200Z,25.95
2017-05-29T09:46:22.544Z,19.05
2017-05-29T09:48:51.056Z,16.77
2017-05-29T09:51:19.424Z,16.52
2017-05-29T09:53:47.778Z,15.87
2017-05-29T09:56:16.406Z,14.70
2017-05-29T09:58:44.798Z,13.08
2017-05-29T10:01:13.157Z,13.43
2017-05-29T10:03:41.933Z,13.02
2017-05-29T10:06:10.276Z,16.87
2017-05-29T10:08:38.623Z,15.53
2017-05-29T10:11:07.044Z,13.72
2017-05-29T10:13:35.412Z,14.08
2017-05-29T10:16:03.765Z,13.88
2017-05-29T10:18:32.410Z,13.24
2017-05-29T10:21:00.764Z,11.98
2017-05-29T10:23:29.105Z,10.70
2017-05-29T10:25:57.567Z,10.94
2017-05-29T10:28:25.896Z,10.78
2017-05-29T10:30:55.107Z,10.72
2017-05-29T10:33:23.567Z,11.02
2017-05-29T10:35:51.897Z,12.80
2017-05-29T10:38:20.229Z,12.54
2017-05-29T10:40:48.842Z,8.88
2017-05-29T10:43:17.171Z,11.66
2017-05-29T10:45:45.503Z,11.68
2017-05-29T10:48:13.966Z,10.68
2017-05-29T10:50:42.296Z,10.98
2017-05-29T10:53:10.619Z,11.50
2017-05-29T10:55:39.175Z,9.86
2017-05-29T10:58:07.515Z,11.02
2017-05-29T11:00:35.839Z,10.80
2017-05-29T11:03:04.307Z,12.82
2017-05-29T11:05:32.651Z,10.20
2017-05-29T11:08:00.988Z,14.12
2017-05-29T11:10:29.580Z,11.50
2017-05-29T11:12:57.908Z,12.14
2017-05-29T11:15:26.284Z,11.98
2017-05-29T11:17:54.664Z,11.78
2017-05-29T11:20:22.987Z,9.20
2017-05-29T11:22:51.638Z,9.80
2017-05-29T11:25:20.202Z,11.12
2017-05-29T11:27:48.524Z,11.26
2017-05-29T11:30:16.843Z,8.32
2017-05-29T11:32:45.320Z,12.44
2017-05-29T11:35:13.735Z,10.26
2017-05-29T11:37:42.140Z,10.10
2017-05-29T11:40:10.596Z,9.14
2017-05-29T11:42:38.933Z,11.40
2017-05-29T11:45:07.256Z,9.24
2017-05-29T11:47:35.916Z,11.04
2017-05-29T11:50:04.476Z,9.76
2017-05-29T11:52:32.796Z,9.02
2017-05-29T11:55:01.167Z,11.14
2017-05-29T11:57:29.492Z,13.84
2017-05-29T11:59:57.882Z,12.36
2017-05-29T12:02:26.268Z,14.12
2017-05-29T12:04:54.608Z,12.28
2017-05-29T12:07:22.942Z,13.22
2017-05-29T12:09:51.585Z,15.08
2017-05-29T12:12:19.938Z,12.50
2017-05-29T12:14:48.267Z,11.42
2017-05-29T12:17:17.328Z,11.98
2017-05-29T12:19:44.893Z,10.28
2017-05-29T12:22:13.236Z,12.64
2017-05-29T12:24:41.242Z,11.06
2017-05-29T12:27:09.585Z,10.30
2017-05-29T12:29:37.918Z,10.58
2017-05-29T12:32:06.579Z,11.02
2017-05-29T12:34:34.912Z,12.10
2017-05-29T12:37:03.331Z,11.86
2017-05-29T12:39:31.144Z,12.40
2017-05-29T12:41:59.480Z,12.06
2017-05-29T12:44:27.818Z,12.04
2017-05-29T12:46:56.345Z,10.86
2017-05-29T12:49:24.876Z,10.34
2017-05-29T12:51:53.331Z,11.18
2017-05-29T12:54:21.716Z,14.42
2017-05-29T12:56:50.081Z,9.34
2017-05-29T12:59:18.403Z,10.98
2017-05-29T13:01:46.874Z,11.16
2017-05-29T13:04:15.207Z,13.34
2017-05-29T13:06:43.608Z,12.06
2017-05-29T13:09:12.359Z,12.72
2017-05-29T13:11:40.689Z,10.80
2017-05-29T13:14:09.031Z,12.04
2017-05-29T13:16:38.280Z,11.38
2017-05-29T13:19:06.611Z,10.32
2017-05-29T13:21:34.951Z,11.00
2017-05-29T13:24:03.446Z,9.56
2017-05-29T13:26:31.841Z,9.06
2017-05-29T13:29:00.167Z,7.96
2017-05-29T13:31:28.543Z,8.64
2017-05-29T13:33:56.880Z,8.48
2017-05-29T13:36:25.208Z,8.98
2017-05-29T13:38:53.587Z,9.00
2017-05-29T13:41:21.940Z,9.90
2017-05-29T13:43:49.557Z,8.08
2017-05-29T13:46:18.791Z,8.08
2017-05-29T13:48:47.119Z,12.06
2017-05-29T13:51:15.447Z,9.24
2017-05-29T13:53:43.827Z,8.46
2017-05-29T13:56:12.153Z,9.12
2017-05-29T13:58:40.500Z,8.56
2017-05-29T14:01:08.949Z,9.90
2017-05-29T14:03:37.277Z,10.10
2017-05-29T14:06:05.597Z,9.28
2017-05-29T14:08:34.148Z,8.58
2017-05-29T14:11:02.475Z,9.08
2017-05-29T14:13:30.814Z,8.02
2017-05-29T14:15:59.387Z,6.68
2017-05-29T14:18:27.733Z,5.74
2017-05-29T14:20:56.077Z,7.42
2017-05-29T14:23:24.535Z,7.02
2017-05-29T14:25:53.621Z,8.76
2017-05-29T14:28:21.945Z,7.70
2017-05-29T14:30:50.484Z,6.52
2017-05-29T14:33:18.812Z,6.18
2017-05-29T14:35:47.135Z,6.66
2017-05-29T14:38:15.519Z,8.32
2017-05-29T14:40:43.841Z,6.98
2017-05-29T14:43:12.172Z,6.64
2017-05-29T14:45:40.750Z,8.10
2017-05-29T14:48:09.072Z,7.72
2017-05-29T14:50:37.474Z,6.26
2017-05-29T14:53:05.927Z,8.62
2017-05-29T14:55:34.256Z,6.44
2017-05-29T14:58:02.592Z,6.52
2017-05-29T15:00:30.956Z,6.98
2017-05-29T15:02:59.276Z,6.50
2017-05-29T15:05:27.600Z,8.20
2017-05-29T15:07:57.114Z,5.94
2017-05-29T15:10:25.475Z,7.16
2017-05-29T15:12:53.804Z,5.74
2017-05-29T15:15:21.704Z,6.76
2017-05-29T15:17:50.023Z,6.58
2017-05-29T15:20:18.388Z,7.14
2017-05-29T15:22:47.035Z,7.28
2017-05-29T15:25:15.366Z,5.74
2017-05-29T15:27:43.684Z,5.88
2017-05-29T15:30:11.566Z,8.38
2017-05-29T15:32:39.927Z,6.86
2017-05-29T15:35:08.248Z,7.92
2017-05-29T15:37:36.642Z,7.20
2017-05-29T15:40:04.976Z,7.44
2017-05-29T15:42:33.311Z,6.84
2017-05-29T15:45:01.780Z,6.56
2017-05-29T15:47:30.100Z,6.66
2017-05-29T15:49:58.415Z,8.54
2017-05-29T15:52:26.799Z,6.40
2017-05-29T15:54:55.128Z,6.08
2017-05-29T15:57:23.477Z,6.26
2017-05-29T15:59:51.931Z,6.52
2017-05-29T16:02:20.307Z,6.26
2017-05-29T16:04:48.645Z,7.24
2017-05-29T16:07:17.044Z,8.30
2017-05-29T16:09:45.447Z,6.78
2017-05-29T16:12:13.854Z,6.54
2017-05-29T16:14:42.368Z,7.60
2017-05-29T16:17:10.707Z,6.74
2017-05-29T16:19:39.039Z,7.12
2017-05-29T16:22:07.696Z,7.00
2017-05-29T16:24:36.121Z,6.58
2017-05-29T16:27:04.451Z,5.88
2017-05-29T16:29:32.951Z,6.20
2017-05-29T16:32:01.275Z,6.48
2017-05-29T16:34:29.599Z,6.12
2017-05-29T16:36:58.293Z,5.76
2017-05-29T16:39:26.619Z,6.26
2017-05-29T16:41:54.943Z,6.80
2017-05-29T16:44:23.401Z,9.26
2017-05-29T16:46:51.737Z,6.66
2017-05-29T16:49:20.068Z,7.54
2017-05-29T16:51:48.623Z,6.76
2017-05-29T16:54:16.951Z,7.02
2017-05-29T16:56:45.442Z,8.64
2017-05-29T16:59:14.188Z,13.30
2017-05-29T17:01:41.797Z,6.06
2017-05-29T17:04:10.474Z,6.46
2017-05-29T17:06:38.951Z,6.88
2017-05-29T17:09:07.306Z,6.26
2017-05-29T17:11:35.648Z,7.32
2017-05-29T17:14:04.157Z,6.94
2017-05-29T17:16:31.744Z,8.40
2017-05-29T17:19:00.120Z,7.52
2017-05-29T17:21:28.622Z,8.36
2017-05-29T17:23:56.972Z,6.84
2017-05-29T17:26:25.410Z,8.04
2017-05-29T17:28:54.169Z,8.48
2017-05-29T17:31:21.770Z,7.98
2017-05-29T17:33:50.105Z,7.98
2017-05-29T17:36:18.557Z,8.48
2017-05-29T17:38:46.889Z,7.78
2017-05-29T17:41:15.257Z,8.80
2017-05-29T17:43:43.790Z,8.10
2017-05-29T17:46:12.149Z,7.32
2017-05-29T17:48:40.487Z,8.24
2017-05-29T17:51:09.223Z,8.50
2017-05-29T17:53:37.572Z,10.56
2017-05-29T17:56:05.933Z,8.58
2017-05-29T17:58:34.493Z,8.90
2017-05-29T18:01:02.834Z,9.08
2017-05-29T18:03:31.204Z,12.06
2017-05-29T18:05:59.740Z,9.24
2017-05-29T18:08:28.071Z,9.72
2017-05-29T18:10:56.413Z,9.80
2017-05-29T18:13:24.866Z,9.74
2017-05-29T18:15:53.205Z,8.88
2017-05-29T18:18:21.557Z,8.92
2017-05-29T18:20:50.864Z,11.32
2017-05-29T18:23:19.213Z,10.56
2017-05-29T18:25:48.175Z,11.92
2017-05-29T18:28:17.730Z,10.06
2017-05-29T18:30:46.283Z,9.32
2017-05-29T18:33:14.921Z,10.40
2017-05-29T18:35:44.368Z,9.24
2017-05-29T18:38:12.816Z,10.28
2017-05-29T18:40:41.161Z,9.28
2017-05-29T18:43:09.779Z,10.32
2017-05-29T18:45:38.296Z,8.36
2017-05-29T18:48:06.633Z,7.68
2017-05-29T18:50:35.113Z,7.74
2017-05-29T18:53:03.465Z,7.94
2017-05-29T18:55:31.848Z,8.10
2017-05-29T18:58:01.348Z,7.16
2017-05-29T19:00:29.687Z,7.82
2017-05-29T19:02:58.587Z,9.08
2017-05-29T19:05:26.570Z,9.70
2017-05-29T19:07:55.723Z,8.86
2017-05-29T19:10:24.149Z,8.38
2017-05-29T19:12:52.688Z,7.92
2017-05-29T19:15:21.207Z,8.76
2017-05-29T19:17:49.555Z,11.96
2017-05-29T19:20:18.379Z,9.34
2017-05-29T19:22:47.030Z,8.22
2017-05-29T19:25:15.390Z,10.08
2017-05-29T19:27:43.809Z,8.92
2017-05-29T19:30:12.146Z,9.06
2017-05-29T19:32:39.731Z,9.92
2017-05-29T19:35:08.237Z,12.24
2017-05-29T19:37:36.580Z,10.70
2017-05-29T19:40:07.622Z,9.00
2017-05-29T19:42:36.242Z,11.32
2017-05-29T19:45:04.632Z,9.30
2017-05-29T19:47:33.233Z,10.88
2017-05-29T19:50:01.661Z,10.60
2017-05-29T19:52:30.024Z,9.92
2017-05-29T19:54:58.831Z,11.98
2017-05-29T19:57:27.217Z,11.42
2017-05-29T19:59:55.572Z,11.90
2017-05-29T20:02:25.546Z,13.60
2017-05-29T20:04:53.921Z,12.70
2017-05-29T20:07:22.263Z,12.90
2017-05-29T20:09:50.939Z,12.92
2017-05-29T20:12:19.306Z,12.02
2017-05-29T20:14:47.665Z,14.18
2017-05-29T20:17:16.580Z,11.92
2017-05-29T20:19:45.189Z,12.78
2017-05-29T20:22:13.545Z,11.74
2017-05-29T20:24:42.095Z,12.46
2017-05-29T20:27:10.464Z,12.80
2017-05-29T20:29:38.898Z,13.10
2017-05-29T20:32:07.928Z,12.26
2017-05-29T20:34:37.833Z,11.72
2017-05-29T20:37:06.215Z,13.48
2017-05-29T20:39:34.794Z,13.00
2017-05-29T20:42:03.159Z,13.44
2017-05-29T20:44:32.055Z,12.87
2017-05-29T20:47:01.739Z,15.42
2017-05-29T20:49:30.902Z,13.60
2017-05-29T20:51:59.745Z,13.75
2017-05-29T20:54:28.321Z,12.30
2017-05-29T20:56:57.504Z,13.86
2017-05-29T20:59:33.602Z,14.44
2017-05-29T21:02:02.761Z,13.90
2017-05-29T21:04:31.441Z,13.80
2017-05-29T21:07:01.238Z,14.90
2017-05-29T21:09:28.861Z,15.78
2017-05-29T21:11:56.965Z,16.22
2017-05-29T21:14:25.850Z,14.13
2017-05-29T21:16:54.749Z,16.22
2017-05-29T21:19:23.284Z,16.65
2017-05-29T21:21:51.651Z,15.95
2017-05-29T21:24:20.028Z,15.97
2017-05-29T21:26:48.813Z,16.90
2017-05-29T21:29:21.640Z,16.28
2017-05-29T21:31:50.413Z,18.32
2017-05-29T21:34:18.917Z,17.20
2017-05-29T21:36:49.318Z,18.00
2017-05-29T21:39:17.830Z,18.63
2017-05-29T21:41:46.229Z,17.40
2017-05-29T21:44:14.600Z,20.63
2017-05-29T21:46:43.232Z,19.57
2017-05-29T21:49:11.661Z,19.58
2017-05-29T21:51:40.088Z,19.38
2017-05-29T21:54:07.712Z,20.67
2017-05-29T21:56:38.219Z,23.38
2017-05-29T21:59:06.772Z,20.33
2017-05-29T22:01:35.139Z,21.22
2017-05-29T22:04:03.488Z,20.63
2017-05-29T22:06:31.251Z,20.50
2017-05-29T22:08:59.597Z,20.95
2017-05-29T22:11:27.956Z,20.87
2017-05-29T22:13:55.957Z,22.38
2017-05-29T22:16:24.303Z,20.17
2017-05-29T22:18:52.992Z,21.17
2017-05-29T22:21:20.749Z,20.12
2017-05-29T22:23:49.110Z,21.40
2017-05-29T22:26:17.457Z,21.70
2017-05-29T22:28:45.925Z,21.63
2017-05-29T22:31:14.283Z,22.75
2017-05-29T22:33:42.645Z,20.10
2017-05-29T22:36:11.018Z,20.23
2017-05-29T22:38:39.385Z,19.70
2017-05-29T22:41:07.728Z,20.50
2017-05-29T22:43:36.412Z,21.58
2017-05-29T22:46:04.003Z,20.50
2017-05-29T22:48:32.800Z,21.33
2017-05-29T22:51:01.220Z,20.90
2017-05-29T22:53:28.801Z,21.02
2017-05-29T22:55:56.401Z,20.28
2017-05-29T22:58:24.940Z,19.53
2017-05-29T23:00:53.328Z,19.78
2017-05-29T23:03:21.676Z,19.00
2017-05-29T23:05:50.073Z,19.85
2017-05-29T23:08:18.424Z,19.15
2017-05-29T23:10:46.778Z,19.98
2017-05-29T23:13:15.389Z,19.97
2017-05-29T23:15:43.740Z,19.85
2017-05-29T23:18:12.114Z,19.63
2017-05-29T23:20:39.923Z,19.27
2017-05-29T23:23:08.260Z,19.75
2017-05-29T23:25:36.610Z,20.20
2017-05-29T23:28:05.010Z,21.17
2017-05-29T23:30:33.360Z,19.45
2017-05-29T23:33:01.869Z,20.75
2017-05-29T23:35:30.321Z,20.60
2017-05-29T23:37:58.704Z,19.92
2017-05-29T23:40:29.119Z,21.10
2017-05-29T23:42:58.401Z,20.22
2017-05-29T23:45:26.780Z,20.80
2017-05-29T23:47:55.185Z,21.77
2017-05-29T23:50:23.703Z,20.52
2017-05-29T23:52:52.049Z,18.57
2017-05-29T23:55:20.431Z,20.80
2017-05-29T23:57:48.851Z,18.28
